sensor_id;sensor_type;location;lat;lon;timestamp;P1;durP1;ratioP1;P2;durP2;ratioP2
74152;SDS011;62505;46.070;14.492;2023-04-01T00:00:32;4.18;;;2.70;;
74152;SDS011;62505;46.070;14.492;2023-04-01T00:02:59;4.65;;;3.00;;
74152;SDS011;62505;46.070;14.492;2023-04-01T00:05:27;4.28;;;2.97;;
74152;SDS011;62505;46.070;14.492;2023-04-01T00:07:55;4.35;;;3.22;;
74152;SDS011;62505;46.070;14.492;2023-04-01T00:10:22;4.97;;;2.88;;
74152;SDS011;62505;46.070;14.492;2023-04-01T00:12:49;5.15;;;3.13;;
74152;SDS011;62505;46.070;14.492;2023-04-01T00:15:16;3.83;;;2.50;;
74152;SDS011;62505;46.070;14.492;2023-04-01T00:17:43;3.55;;;2.83;;
74152;SDS011;62505;46.070;14.492;2023-04-01T00:20:10;4.22;;;3.20;;
74152;SDS011;62505;46.070;14.492;2023-04-01T00:22:39;3.63;;;2.67;;
74152;SDS011;62505;46.070;14.492;2023-04-01T00:25:08;4.30;;;3.10;;
74152;SDS011;62505;46.070;14.492;2023-04-01T00:27:35;4.60;;;2.97;;
74152;SDS011;62505;46.070;14.492;2023-04-01T00:30:02;3.88;;;2.85;;
74152;SDS011;62505;46.070;14.492;2023-04-01T00:32:30;3.25;;;2.78;;
74152;SDS011;62505;46.070;14.492;2023-04-01T00:34:57;4.13;;;2.75;;
74152;SDS011;62505;46.070;14.492;2023-04-01T00:37:25;3.30;;;2.50;;
74152;SDS011;62505;46.070;14.492;2023-04-01T00:39:53;3.30;;;2.70;;
74152;SDS011;62505;46.070;14.492;2023-04-01T00:42:21;4.60;;;2.67;;
74152;SDS011;62505;46.070;14.492;2023-04-01T00:44:50;3.17;;;2.78;;
74152;SDS011;62505;46.070;14.492;2023-04-01T00:47:19;3.55;;;3.05;;
74152;SDS011;62505;46.070;14.492;2023-04-01T00:49:48;4.70;;;3.15;;
74152;SDS011;62505;46.070;14.492;2023-04-01T00:52:17;4.20;;;2.85;;
74152;SDS011;62505;46.070;14.492;2023-04-01T00:54:47;4.03;;;2.65;;
74152;SDS011;62505;46.070;14.492;2023-04-01T00:57:21;3.92;;;2.95;;
74152;SDS011;62505;46.070;14.492;2023-04-01T00:59:54;4.68;;;3.00;;
74152;SDS011;62505;46.070;14.492;2023-04-01T01:02:21;3.38;;;2.70;;
74152;SDS011;62505;46.070;14.492;2023-04-01T01:04:48;5.05;;;3.35;;
74152;SDS011;62505;46.070;14.492;2023-04-01T01:07:19;3.95;;;2.85;;
74152;SDS011;62505;46.070;14.492;2023-04-01T01:09:55;3.72;;;2.90;;
74152;SDS011;62505;46.070;14.492;2023-04-01T01:12:30;3.88;;;2.72;;
74152;SDS011;62505;46.070;14.492;2023-04-01T01:15:07;4.70;;;3.10;;
74152;SDS011;62505;46.070;14.492;2023-04-01T01:17:45;3.63;;;2.72;;
74152;SDS011;62505;46.070;14.492;2023-04-01T01:26:50;3.40;;;2.70;;
74152;SDS011;62505;46.070;14.492;2023-04-01T01:32:32;4.55;;;3.10;;
74152;SDS011;62505;46.070;14.492;2023-04-01T01:35:19;4.05;;;3.08;;
74152;SDS011;62505;46.070;14.492;2023-04-01T01:37:49;4.85;;;3.17;;
74152;SDS011;62505;46.070;14.492;2023-04-01T01:40:19;4.97;;;3.35;;
74152;SDS011;62505;46.070;14.492;2023-04-01T01:42:48;4.35;;;3.05;;
74152;SDS011;62505;46.070;14.492;2023-04-01T01:45:18;3.67;;;2.83;;
74152;SDS011;62505;46.070;14.492;2023-04-01T01:47:50;4.07;;;3.05;;
74152;SDS011;62505;46.070;14.492;2023-04-01T01:50:19;4.80;;;3.25;;
74152;SDS011;62505;46.070;14.492;2023-04-01T01:52:49;4.68;;;3.00;;
74152;SDS011;62505;46.070;14.492;2023-04-01T01:55:27;4.28;;;2.83;;
74152;SDS011;62505;46.070;14.492;2023-04-01T01:57:56;4.25;;;3.00;;
74152;SDS011;62505;46.070;14.492;2023-04-01T02:00:25;3.20;;;2.65;;
74152;SDS011;62505;46.070;14.492;2023-04-01T02:02:53;3.10;;;2.47;;
74152;SDS011;62505;46.070;14.492;2023-04-01T02:05:22;3.53;;;2.90;;
74152;SDS011;62505;46.070;14.492;2023-04-01T02:07:52;4.15;;;2.92;;
74152;SDS011;62505;46.070;14.492;2023-04-01T02:10:26;5.45;;;3.33;;
74152;SDS011;62505;46.070;14.492;2023-04-01T02:12:59;4.20;;;3.30;;
74152;SDS011;62505;46.070;14.492;2023-04-01T02:15:32;4.18;;;3.00;;
74152;SDS011;62505;46.070;14.492;2023-04-01T02:18:03;3.88;;;3.25;;
74152;SDS011;62505;46.070;14.492;2023-04-01T02:20:33;3.67;;;2.85;;
74152;SDS011;62505;46.070;14.492;2023-04-01T02:23:02;3.50;;;3.08;;
74152;SDS011;62505;46.070;14.492;2023-04-01T02:25:32;4.15;;;3.10;;
74152;SDS011;62505;46.070;14.492;2023-04-01T02:28:01;3.70;;;2.97;;
74152;SDS011;62505;46.070;14.492;2023-04-01T02:30:31;4.57;;;3.33;;
74152;SDS011;62505;46.070;14.492;2023-04-01T02:33:00;5.50;;;3.15;;
74152;SDS011;62505;46.070;14.492;2023-04-01T02:35:29;3.53;;;2.58;;
74152;SDS011;62505;46.070;14.492;2023-04-01T02:37:57;4.35;;;2.75;;
74152;SDS011;62505;46.070;14.492;2023-04-01T02:40:25;3.90;;;2.90;;
74152;SDS011;62505;46.070;14.492;2023-04-01T02:42:52;5.15;;;3.40;;
74152;SDS011;62505;46.070;14.492;2023-04-01T02:45:19;4.70;;;3.17;;
74152;SDS011;62505;46.070;14.492;2023-04-01T02:47:46;5.43;;;3.00;;
74152;SDS011;62505;46.070;14.492;2023-04-01T02:50:13;4.03;;;3.03;;
74152;SDS011;62505;46.070;14.492;2023-04-01T02:52:40;4.20;;;3.00;;
74152;SDS011;62505;46.070;14.492;2023-04-01T02:55:08;4.00;;;2.95;;
74152;SDS011;62505;46.070;14.492;2023-04-01T02:57:36;4.82;;;3.17;;
74152;SDS011;62505;46.070;14.492;2023-04-01T03:00:03;4.18;;;3.13;;
74152;SDS011;62505;46.070;14.492;2023-04-01T03:02:36;3.42;;;3.00;;
74152;SDS011;62505;46.070;14.492;2023-04-01T03:05:04;4.88;;;3.28;;
74152;SDS011;62505;46.070;14.492;2023-04-01T03:07:32;3.95;;;3.20;;
74152;SDS011;62505;46.070;14.492;2023-04-01T03:09:59;5.60;;;3.42;;
74152;SDS011;62505;46.070;14.492;2023-04-01T03:12:27;2.97;;;2.58;;
74152;SDS011;62505;46.070;14.492;2023-04-01T03:14:54;4.07;;;3.17;;
74152;SDS011;62505;46.070;14.492;2023-04-01T03:17:21;4.40;;;2.95;;
74152;SDS011;62505;46.070;14.492;2023-04-01T03:19:48;4.15;;;3.17;;
74152;SDS011;62505;46.070;14.492;2023-04-01T03:22:15;3.95;;;2.75;;
74152;SDS011;62505;46.070;14.492;2023-04-01T03:24:44;3.72;;;3.05;;
74152;SDS011;62505;46.070;14.492;2023-04-01T03:27:11;4.22;;;3.20;;
74152;SDS011;62505;46.070;14.492;2023-04-01T03:29:39;4.07;;;2.95;;
74152;SDS011;62505;46.070;14.492;2023-04-01T03:32:06;3.97;;;2.78;;
74152;SDS011;62505;46.070;14.492;2023-04-01T03:34:33;4.10;;;2.83;;
74152;SDS011;62505;46.070;14.492;2023-04-01T03:37:00;3.22;;;2.88;;
74152;SDS011;62505;46.070;14.492;2023-04-01T03:39:27;3.58;;;2.72;;
74152;SDS011;62505;46.070;14.492;2023-04-01T03:41:54;3.97;;;3.20;;
74152;SDS011;62505;46.070;14.492;2023-04-01T03:44:21;5.63;;;3.00;;
74152;SDS011;62505;46.070;14.492;2023-04-01T03:46:50;3.92;;;2.75;;
74152;SDS011;62505;46.070;14.492;2023-04-01T03:49:16;4.47;;;3.10;;
74152;SDS011;62505;46.070;14.492;2023-04-01T03:51:43;3.00;;;2.65;;
74152;SDS011;62505;46.070;14.492;2023-04-01T03:54:10;3.45;;;2.88;;
74152;SDS011;62505;46.070;14.492;2023-04-01T03:56:37;4.18;;;2.92;;
74152;SDS011;62505;46.070;14.492;2023-04-01T03:59:05;4.25;;;3.05;;
74152;SDS011;62505;46.070;14.492;2023-04-01T04:01:33;4.28;;;3.05;;
74152;SDS011;62505;46.070;14.492;2023-04-01T04:04:02;3.80;;;2.90;;
74152;SDS011;62505;46.070;14.492;2023-04-01T04:06:29;4.45;;;3.10;;
74152;SDS011;62505;46.070;14.492;2023-04-01T04:08:56;3.83;;;2.83;;
74152;SDS011;62505;46.070;14.492;2023-04-01T04:11:23;4.28;;;2.95;;
74152;SDS011;62505;46.070;14.492;2023-04-01T04:13:50;4.35;;;2.78;;
74152;SDS011;62505;46.070;14.492;2023-04-01T04:16:18;3.88;;;3.05;;
74152;SDS011;62505;46.070;14.492;2023-04-01T04:18:45;3.72;;;2.80;;
74152;SDS011;62505;46.070;14.492;2023-04-01T04:21:14;3.63;;;2.95;;
74152;SDS011;62505;46.070;14.492;2023-04-01T04:23:41;3.67;;;2.92;;
74152;SDS011;62505;46.070;14.492;2023-04-01T04:26:09;4.22;;;3.25;;
74152;SDS011;62505;46.070;14.492;2023-04-01T04:28:37;4.38;;;3.03;;
74152;SDS011;62505;46.070;14.492;2023-04-01T04:31:04;4.53;;;3.28;;
74152;SDS011;62505;46.070;14.492;2023-04-01T04:33:33;3.75;;;3.00;;
74152;SDS011;62505;46.070;14.492;2023-04-01T04:36:01;4.15;;;3.17;;
74152;SDS011;62505;46.070;14.492;2023-04-01T04:38:30;4.35;;;3.10;;
74152;SDS011;62505;46.070;14.492;2023-04-01T04:40:57;4.28;;;3.40;;
74152;SDS011;62505;46.070;14.492;2023-04-01T04:43:24;4.93;;;3.13;;
74152;SDS011;62505;46.070;14.492;2023-04-01T04:45:52;3.75;;;2.90;;
74152;SDS011;62505;46.070;14.492;2023-04-01T04:48:19;4.15;;;3.10;;
74152;SDS011;62505;46.070;14.492;2023-04-01T04:50:46;3.88;;;2.85;;
74152;SDS011;62505;46.070;14.492;2023-04-01T04:53:14;4.45;;;3.03;;
74152;SDS011;62505;46.070;14.492;2023-04-01T04:55:44;4.13;;;3.15;;
74152;SDS011;62505;46.070;14.492;2023-04-01T04:58:11;3.80;;;2.85;;
74152;SDS011;62505;46.070;14.492;2023-04-01T05:00:38;4.57;;;3.22;;
74152;SDS011;62505;46.070;14.492;2023-04-01T05:03:05;3.92;;;2.90;;
74152;SDS011;62505;46.070;14.492;2023-04-01T05:05:32;4.35;;;3.05;;
74152;SDS011;62505;46.070;14.492;2023-04-01T05:07:59;4.10;;;3.00;;
74152;SDS011;62505;46.070;14.492;2023-04-01T05:10:26;3.80;;;3.05;;
74152;SDS011;62505;46.070;14.492;2023-04-01T05:12:55;4.18;;;3.22;;
74152;SDS011;62505;46.070;14.492;2023-04-01T05:15:22;3.85;;;3.22;;
74152;SDS011;62505;46.070;14.492;2023-04-01T05:17:50;4.18;;;2.92;;
74152;SDS011;62505;46.070;14.492;2023-04-01T05:20:17;4.50;;;2.97;;
74152;SDS011;62505;46.070;14.492;2023-04-01T05:22:44;4.05;;;3.03;;
74152;SDS011;62505;46.070;14.492;2023-04-01T05:25:10;4.43;;;3.03;;
74152;SDS011;62505;46.070;14.492;2023-04-01T05:27:37;4.47;;;2.88;;
74152;SDS011;62505;46.070;14.492;2023-04-01T05:30:07;4.63;;;3.28;;
74152;SDS011;62505;46.070;14.492;2023-04-01T05:32:34;4.10;;;3.17;;
74152;SDS011;62505;46.070;14.492;2023-04-01T05:35:01;3.47;;;2.67;;
74152;SDS011;62505;46.070;14.492;2023-04-01T05:37:28;3.50;;;2.85;;
74152;SDS011;62505;46.070;14.492;2023-04-01T05:39:55;4.15;;;3.13;;
74152;SDS011;62505;46.070;14.492;2023-04-01T05:42:23;4.03;;;2.80;;
74152;SDS011;62505;46.070;14.492;2023-04-01T05:44:50;3.15;;;2.72;;
74152;SDS011;62505;46.070;14.492;2023-04-01T05:47:19;5.35;;;3.40;;
74152;SDS011;62505;46.070;14.492;2023-04-01T05:49:46;3.88;;;3.17;;
74152;SDS011;62505;46.070;14.492;2023-04-01T05:52:13;5.45;;;2.65;;
74152;SDS011;62505;46.070;14.492;2023-04-01T05:54:41;3.45;;;2.60;;
74152;SDS011;62505;46.070;14.492;2023-04-01T05:57:08;3.92;;;2.90;;
74152;SDS011;62505;46.070;14.492;2023-04-01T05:59:35;4.00;;;2.90;;
74152;SDS011;62505;46.070;14.492;2023-04-01T06:02:02;4.07;;;2.92;;
74152;SDS011;62505;46.070;14.492;2023-04-01T06:04:32;3.38;;;2.60;;
74152;SDS011;62505;46.070;14.492;2023-04-01T06:07:05;4.00;;;3.00;;
74152;SDS011;62505;46.070;14.492;2023-04-01T06:09:37;3.53;;;2.83;;
74152;SDS011;62505;46.070;14.492;2023-04-01T06:12:08;4.43;;;2.95;;
74152;SDS011;62505;46.070;14.492;2023-04-01T06:14:50;3.30;;;2.75;;
74152;SDS011;62505;46.070;14.492;2023-04-01T06:17:30;4.50;;;2.90;;
74152;SDS011;62505;46.070;14.492;2023-04-01T06:20:09;4.53;;;3.20;;
74152;SDS011;62505;46.070;14.492;2023-04-01T06:22:45;3.92;;;2.70;;
74152;SDS011;62505;46.070;14.492;2023-04-01T06:25:35;3.75;;;2.72;;
74152;SDS011;62505;46.070;14.492;2023-04-01T06:28:30;3.58;;;2.78;;
74152;SDS011;62505;46.070;14.492;2023-04-01T06:31:26;3.90;;;3.00;;
74152;SDS011;62505;46.070;14.492;2023-04-01T06:34:20;3.78;;;2.78;;
74152;SDS011;62505;46.070;14.492;2023-04-01T06:37:09;4.70;;;3.08;;
74152;SDS011;62505;46.070;14.492;2023-04-01T06:39:47;3.65;;;2.72;;
74152;SDS011;62505;46.070;14.492;2023-04-01T06:42:35;3.67;;;2.60;;
74152;SDS011;62505;46.070;14.492;2023-04-01T06:45:20;3.35;;;2.83;;
74152;SDS011;62505;46.070;14.492;2023-04-01T06:48:00;4.07;;;3.10;;
74152;SDS011;62505;46.070;14.492;2023-04-01T06:50:39;3.30;;;2.83;;
74152;SDS011;62505;46.070;14.492;2023-04-01T06:53:13;4.72;;;3.45;;
74152;SDS011;62505;46.070;14.492;2023-04-01T06:55:46;3.63;;;2.88;;
74152;SDS011;62505;46.070;14.492;2023-04-01T06:58:18;4.03;;;3.17;;
74152;SDS011;62505;46.070;14.492;2023-04-01T07:00:48;3.25;;;2.60;;
74152;SDS011;62505;46.070;14.492;2023-04-01T07:03:19;4.35;;;3.17;;
74152;SDS011;62505;46.070;14.492;2023-04-01T07:05:49;4.30;;;2.95;;
74152;SDS011;62505;46.070;14.492;2023-04-01T07:08:20;3.45;;;2.80;;
74152;SDS011;62505;46.070;14.492;2023-04-01T07:10:53;3.97;;;2.60;;
74152;SDS011;62505;46.070;14.492;2023-04-01T07:13:24;4.43;;;3.10;;
74152;SDS011;62505;46.070;14.492;2023-04-01T07:15:56;3.80;;;2.55;;
74152;SDS011;62505;46.070;14.492;2023-04-01T07:18:29;3.95;;;3.10;;
74152;SDS011;62505;46.070;14.492;2023-04-01T07:21:00;3.63;;;2.88;;
74152;SDS011;62505;46.070;14.492;2023-04-01T07:23:31;4.03;;;2.97;;
74152;SDS011;62505;46.070;14.492;2023-04-01T07:26:06;4.57;;;2.78;;
74152;SDS011;62505;46.070;14.492;2023-04-01T07:28:41;3.72;;;2.90;;
74152;SDS011;62505;46.070;14.492;2023-04-01T07:31:11;3.45;;;3.00;;
74152;SDS011;62505;46.070;14.492;2023-04-01T07:33:49;3.80;;;2.75;;
74152;SDS011;62505;46.070;14.492;2023-04-01T07:36:24;4.57;;;3.10;;
74152;SDS011;62505;46.070;14.492;2023-04-01T07:39:01;4.38;;;2.90;;
74152;SDS011;62505;46.070;14.492;2023-04-01T07:41:39;3.38;;;2.65;;
74152;SDS011;62505;46.070;14.492;2023-04-01T07:44:13;4.18;;;2.85;;
74152;SDS011;62505;46.070;14.492;2023-04-01T07:46:57;6.85;;;3.00;;
74152;SDS011;62505;46.070;14.492;2023-04-01T07:49:48;4.22;;;2.90;;
74152;SDS011;62505;46.070;14.492;2023-04-01T07:52:26;3.55;;;2.80;;
74152;SDS011;62505;46.070;14.492;2023-04-01T07:55:04;3.08;;;2.60;;
74152;SDS011;62505;46.070;14.492;2023-04-01T07:57:41;4.50;;;3.08;;
74152;SDS011;62505;46.070;14.492;2023-04-01T08:00:15;3.78;;;2.97;;
74152;SDS011;62505;46.070;14.492;2023-04-01T08:05:46;3.78;;;2.67;;
74152;SDS011;62505;46.070;14.492;2023-04-01T08:08:24;5.13;;;3.28;;
74152;SDS011;62505;46.070;14.492;2023-04-01T08:11:04;5.20;;;2.97;;
74152;SDS011;62505;46.070;14.492;2023-04-01T08:13:40;4.68;;;3.10;;
74152;SDS011;62505;46.070;14.492;2023-04-01T08:16:17;4.82;;;3.30;;
74152;SDS011;62505;46.070;14.492;2023-04-01T08:18:52;4.65;;;3.45;;
74152;SDS011;62505;46.070;14.492;2023-04-01T08:21:27;5.10;;;3.20;;
74152;SDS011;62505;46.070;14.492;2023-04-01T08:23:58;4.55;;;3.15;;
74152;SDS011;62505;46.070;14.492;2023-04-01T08:26:36;7.55;;;3.30;;
74152;SDS011;62505;46.070;14.492;2023-04-01T08:29:10;7.28;;;3.67;;
74152;SDS011;62505;46.070;14.492;2023-04-01T08:31:40;4.18;;;3.03;;
74152;SDS011;62505;46.070;14.492;2023-04-01T08:34:14;5.53;;;3.50;;
74152;SDS011;62505;46.070;14.492;2023-04-01T08:36:46;5.05;;;3.55;;
74152;SDS011;62505;46.070;14.492;2023-04-01T08:39:20;6.45;;;3.30;;
74152;SDS011;62505;46.070;14.492;2023-04-01T08:42:04;5.47;;;3.50;;
74152;SDS011;62505;46.070;14.492;2023-04-01T08:45:02;6.70;;;3.38;;
74152;SDS011;62505;46.070;14.492;2023-04-01T08:50:55;5.43;;;3.17;;
74152;SDS011;62505;46.070;14.492;2023-04-01T08:53:49;3.70;;;2.83;;
74152;SDS011;62505;46.070;14.492;2023-04-01T08:56:30;7.35;;;3.35;;
74152;SDS011;62505;46.070;14.492;2023-04-01T08:59:16;6.45;;;3.38;;
74152;SDS011;62505;46.070;14.492;2023-04-01T09:02:03;9.95;;;4.97;;
74152;SDS011;62505;46.070;14.492;2023-04-01T09:04:59;8.50;;;4.32;;
74152;SDS011;62505;46.070;14.492;2023-04-01T09:07:45;8.60;;;4.80;;
74152;SDS011;62505;46.070;14.492;2023-04-01T09:10:30;14.52;;;5.03;;
74152;SDS011;62505;46.070;14.492;2023-04-01T09:13:20;12.65;;;5.55;;
74152;SDS011;62505;46.070;14.492;2023-04-01T09:16:20;10.07;;;4.80;;
74152;SDS011;62505;46.070;14.492;2023-04-01T09:19:11;10.10;;;4.95;;
74152;SDS011;62505;46.070;14.492;2023-04-01T09:22:06;13.88;;;5.07;;
74152;SDS011;62505;46.070;14.492;2023-04-01T09:27:54;8.68;;;4.93;;
74152;SDS011;62505;46.070;14.492;2023-04-01T09:36:33;10.00;;;4.90;;
74152;SDS011;62505;46.070;14.492;2023-04-01T09:39:18;9.63;;;4.75;;
74152;SDS011;62505;46.070;14.492;2023-04-01T09:42:14;10.75;;;4.95;;
74152;SDS011;62505;46.070;14.492;2023-04-01T09:44:55;13.40;;;4.53;;
74152;SDS011;62505;46.070;14.492;2023-04-01T09:47:33;9.48;;;5.43;;
74152;SDS011;62505;46.070;14.492;2023-04-01T09:50:16;11.82;;;4.70;;
74152;SDS011;62505;46.070;14.492;2023-04-01T09:52:57;9.23;;;4.22;;
74152;SDS011;62505;46.070;14.492;2023-04-01T09:55:46;7.80;;;4.75;;
74152;SDS011;62505;46.070;14.492;2023-04-01T10:02:08;9.23;;;5.07;;
74152;SDS011;62505;46.070;14.492;2023-04-01T10:08:14;13.32;;;4.63;;
74152;SDS011;62505;46.070;14.492;2023-04-01T10:11:16;8.02;;;4.50;;
74152;SDS011;62505;46.070;14.492;2023-04-01T10:14:15;12.85;;;4.38;;
74152;SDS011;62505;46.070;14.492;2023-04-01T10:17:25;7.63;;;4.45;;
74152;SDS011;62505;46.070;14.492;2023-04-01T10:20:24;8.45;;;4.85;;
74152;SDS011;62505;46.070;14.492;2023-04-01T10:23:10;11.40;;;4.88;;
74152;SDS011;62505;46.070;14.492;2023-04-01T10:25:54;6.72;;;4.18;;
74152;SDS011;62505;46.070;14.492;2023-04-01T10:32:04;7.00;;;4.53;;
74152;SDS011;62505;46.070;14.492;2023-04-01T10:34:56;9.65;;;4.38;;
74152;SDS011;62505;46.070;14.492;2023-04-01T10:37:50;7.43;;;4.47;;
74152;SDS011;62505;46.070;14.492;2023-04-01T10:40:51;6.55;;;4.15;;
74152;SDS011;62505;46.070;14.492;2023-04-01T10:43:46;7.93;;;4.13;;
74152;SDS011;62505;46.070;14.492;2023-04-01T10:46:42;6.95;;;4.20;;
74152;SDS011;62505;46.070;14.492;2023-04-01T10:52:36;8.05;;;4.28;;
74152;SDS011;62505;46.070;14.492;2023-04-01T10:55:45;8.88;;;4.00;;
74152;SDS011;62505;46.070;14.492;2023-04-01T10:58:44;6.97;;;4.10;;
74152;SDS011;62505;46.070;14.492;2023-04-01T11:01:45;12.30;;;3.90;;
74152;SDS011;62505;46.070;14.492;2023-04-01T11:07:53;5.78;;;3.47;;
74152;SDS011;62505;46.070;14.492;2023-04-01T11:17:21;8.20;;;4.10;;
74152;SDS011;62505;46.070;14.492;2023-04-01T11:23:11;6.68;;;3.67;;
74152;SDS011;62505;46.070;14.492;2023-04-01T11:26:09;8.75;;;4.20;;
74152;SDS011;62505;46.070;14.492;2023-04-01T11:28:53;8.23;;;4.18;;
74152;SDS011;62505;46.070;14.492;2023-04-01T11:31:33;6.63;;;3.97;;
74152;SDS011;62505;46.070;14.492;2023-04-01T11:34:16;7.93;;;4.22;;
74152;SDS011;62505;46.070;14.492;2023-04-01T11:37:19;9.68;;;3.85;;
74152;SDS011;62505;46.070;14.492;2023-04-01T11:39:57;6.20;;;3.75;;
74152;SDS011;62505;46.070;14.492;2023-04-01T11:42:34;7.93;;;4.18;;
74152;SDS011;62505;46.070;14.492;2023-04-01T11:45:15;5.70;;;3.45;;
74152;SDS011;62505;46.070;14.492;2023-04-01T11:51:04;9.82;;;4.00;;
74152;SDS011;62505;46.070;14.492;2023-04-01T11:54:00;6.20;;;3.63;;
74152;SDS011;62505;46.070;14.492;2023-04-01T11:59:42;8.23;;;3.90;;
74152;SDS011;62505;46.070;14.492;2023-04-01T12:02:18;5.78;;;3.15;;
74152;SDS011;62505;46.070;14.492;2023-04-01T12:04:54;6.50;;;3.55;;
74152;SDS011;62505;46.070;14.492;2023-04-01T12:07:37;8.45;;;4.00;;
74152;SDS011;62505;46.070;14.492;2023-04-01T12:10:18;5.18;;;3.30;;
74152;SDS011;62505;46.070;14.492;2023-04-01T12:12:48;6.57;;;3.85;;
74152;SDS011;62505;46.070;14.492;2023-04-01T12:15:23;7.07;;;3.72;;
74152;SDS011;62505;46.070;14.492;2023-04-01T12:18:05;6.22;;;3.45;;
74152;SDS011;62505;46.070;14.492;2023-04-01T12:20:43;7.47;;;3.47;;
74152;SDS011;62505;46.070;14.492;2023-04-01T12:23:20;6.15;;;3.55;;
74152;SDS011;62505;46.070;14.492;2023-04-01T12:26:18;5.95;;;3.38;;
74152;SDS011;62505;46.070;14.492;2023-04-01T12:29:03;6.85;;;3.63;;
74152;SDS011;62505;46.070;14.492;2023-04-01T12:31:42;6.22;;;3.40;;
74152;SDS011;62505;46.070;14.492;2023-04-01T12:34:26;9.13;;;3.70;;
74152;SDS011;62505;46.070;14.492;2023-04-01T12:37:12;5.80;;;3.88;;
74152;SDS011;62505;46.070;14.492;2023-04-01T12:39:57;6.30;;;3.55;;
74152;SDS011;62505;46.070;14.492;2023-04-01T12:42:43;5.60;;;3.30;;
74152;SDS011;62505;46.070;14.492;2023-04-01T12:45:26;6.32;;;3.42;;
74152;SDS011;62505;46.070;14.492;2023-04-01T12:48:00;7.18;;;3.45;;
74152;SDS011;62505;46.070;14.492;2023-04-01T12:50:58;6.93;;;3.63;;
74152;SDS011;62505;46.070;14.492;2023-04-01T12:53:39;4.50;;;3.05;;
74152;SDS011;62505;46.070;14.492;2023-04-01T12:56:18;6.53;;;3.63;;
74152;SDS011;62505;46.070;14.492;2023-04-01T13:01:58;6.80;;;3.47;;
74152;SDS011;62505;46.070;14.492;2023-04-01T13:04:49;8.60;;;3.65;;
74152;SDS011;62505;46.070;14.492;2023-04-01T13:10:49;4.78;;;3.20;;
74152;SDS011;62505;46.070;14.492;2023-04-01T13:16:39;4.93;;;3.30;;
74152;SDS011;62505;46.070;14.492;2023-04-01T13:19:13;5.07;;;3.30;;
74152;SDS011;62505;46.070;14.492;2023-04-01T13:21:50;6.15;;;3.35;;
74152;SDS011;62505;46.070;14.492;2023-04-01T13:24:28;9.88;;;3.47;;
74152;SDS011;62505;46.070;14.492;2023-04-01T13:27:05;4.85;;;2.80;;
74152;SDS011;62505;46.070;14.492;2023-04-01T13:29:36;4.68;;;3.13;;
74152;SDS011;62505;46.070;14.492;2023-04-01T13:32:10;5.47;;;3.10;;
74152;SDS011;62505;46.070;14.492;2023-04-01T13:34:52;5.20;;;2.90;;
74152;SDS011;62505;46.070;14.492;2023-04-01T13:37:34;4.35;;;2.92;;
74152;SDS011;62505;46.070;14.492;2023-04-01T13:43:07;4.38;;;2.70;;
74152;SDS011;62505;46.070;14.492;2023-04-01T13:45:42;5.53;;;3.17;;
74152;SDS011;62505;46.070;14.492;2023-04-01T13:51:07;4.50;;;2.78;;
74152;SDS011;62505;46.070;14.492;2023-04-01T13:54:03;6.00;;;3.15;;
74152;SDS011;62505;46.070;14.492;2023-04-01T13:57:11;7.28;;;3.30;;
74152;SDS011;62505;46.070;14.492;2023-04-01T13:59:57;5.30;;;3.08;;
74152;SDS011;62505;46.070;14.492;2023-04-01T14:08:28;5.78;;;2.90;;
74152;SDS011;62505;46.070;14.492;2023-04-01T14:11:06;5.05;;;2.88;;
74152;SDS011;62505;46.070;14.492;2023-04-01T14:13:47;4.95;;;3.15;;
74152;SDS011;62505;46.070;14.492;2023-04-01T14:19:33;6.35;;;2.95;;
74152;SDS011;62505;46.070;14.492;2023-04-01T14:22:20;4.90;;;2.90;;
74152;SDS011;62505;46.070;14.492;2023-04-01T14:24:56;3.78;;;2.65;;
74152;SDS011;62505;46.070;14.492;2023-04-01T14:27:41;6.03;;;2.80;;
74152;SDS011;62505;46.070;14.492;2023-04-01T14:30:23;6.05;;;3.10;;
74152;SDS011;62505;46.070;14.492;2023-04-01T14:33:21;4.85;;;2.83;;
74152;SDS011;62505;46.070;14.492;2023-04-01T14:35:58;3.95;;;2.85;;
74152;SDS011;62505;46.070;14.492;2023-04-01T14:38:50;4.18;;;2.85;;
74152;SDS011;62505;46.070;14.492;2023-04-01T14:41:28;7.95;;;3.30;;
74152;SDS011;62505;46.070;14.492;2023-04-01T14:44:22;4.53;;;2.90;;
74152;SDS011;62505;46.070;14.492;2023-04-01T14:47:06;4.68;;;2.90;;
74152;SDS011;62505;46.070;14.492;2023-04-01T14:49:41;4.57;;;2.72;;
74152;SDS011;62505;46.070;14.492;2023-04-01T14:52:13;5.40;;;3.03;;
74152;SDS011;62505;46.070;14.492;2023-04-01T14:54:48;5.18;;;3.45;;
74152;SDS011;62505;46.070;14.492;2023-04-01T14:57:20;4.95;;;2.97;;
74152;SDS011;62505;46.070;14.492;2023-04-01T14:59:51;5.22;;;2.65;;
74152;SDS011;62505;46.070;14.492;2023-04-01T15:02:32;5.18;;;2.70;;
74152;SDS011;62505;46.070;14.492;2023-04-01T15:05:10;4.25;;;2.97;;
74152;SDS011;62505;46.070;14.492;2023-04-01T15:07:56;3.83;;;2.75;;
74152;SDS011;62505;46.070;14.492;2023-04-01T15:10:40;3.80;;;2.40;;
74152;SDS011;62505;46.070;14.492;2023-04-01T15:13:42;4.30;;;2.80;;
74152;SDS011;62505;46.070;14.492;2023-04-01T15:16:21;4.85;;;2.85;;
74152;SDS011;62505;46.070;14.492;2023-04-01T15:18:59;4.10;;;2.50;;
74152;SDS011;62505;46.070;14.492;2023-04-01T15:21:44;5.30;;;2.60;;
74152;SDS011;62505;46.070;14.492;2023-04-01T15:24:20;6.85;;;3.03;;
74152;SDS011;62505;46.070;14.492;2023-04-01T15:27:06;4.07;;;2.47;;
74152;SDS011;62505;46.070;14.492;2023-04-01T15:29:45;4.78;;;2.25;;
74152;SDS011;62505;46.070;14.492;2023-04-01T15:32:37;3.42;;;2.72;;
74152;SDS011;62505;46.070;14.492;2023-04-01T15:35:18;3.80;;;2.72;;
74152;SDS011;62505;46.070;14.492;2023-04-01T15:37:57;4.28;;;2.30;;
74152;SDS011;62505;46.070;14.492;2023-04-01T15:40:32;4.72;;;2.70;;
74152;SDS011;62505;46.070;14.492;2023-04-01T15:43:12;4.35;;;2.85;;
74152;SDS011;62505;46.070;14.492;2023-04-01T15:45:49;3.90;;;2.63;;
74152;SDS011;62505;46.070;14.492;2023-04-01T15:48:28;4.07;;;2.50;;
74152;SDS011;62505;46.070;14.492;2023-04-01T15:51:09;7.32;;;2.60;;
74152;SDS011;62505;46.070;14.492;2023-04-01T15:54:06;3.78;;;2.42;;
74152;SDS011;62505;46.070;14.492;2023-04-01T15:56:54;3.97;;;2.75;;
74152;SDS011;62505;46.070;14.492;2023-04-01T16:02:48;3.28;;;2.15;;
74152;SDS011;62505;46.070;14.492;2023-04-01T16:05:31;5.63;;;2.47;;
74152;SDS011;62505;46.070;14.492;2023-04-01T16:08:11;3.60;;;2.40;;
74152;SDS011;62505;46.070;14.492;2023-04-01T16:10:50;4.35;;;2.95;;
74152;SDS011;62505;46.070;14.492;2023-04-01T16:13:29;3.78;;;2.53;;
74152;SDS011;62505;46.070;14.492;2023-04-01T16:16:07;3.38;;;2.40;;
74152;SDS011;62505;46.070;14.492;2023-04-01T16:18:48;2.97;;;2.50;;
74152;SDS011;62505;46.070;14.492;2023-04-01T16:21:34;3.28;;;2.33;;
74152;SDS011;62505;46.070;14.492;2023-04-01T16:24:08;4.07;;;2.35;;
74152;SDS011;62505;46.070;14.492;2023-04-01T16:26:44;5.20;;;2.20;;
74152;SDS011;62505;46.070;14.492;2023-04-01T16:29:19;3.70;;;2.45;;
74152;SDS011;62505;46.070;14.492;2023-04-01T16:31:52;3.90;;;2.30;;
74152;SDS011;62505;46.070;14.492;2023-04-01T16:34:27;5.22;;;2.90;;
74152;SDS011;62505;46.070;14.492;2023-04-01T16:37:03;3.88;;;2.47;;
74152;SDS011;62505;46.070;14.492;2023-04-01T16:39:43;3.60;;;2.30;;
74152;SDS011;62505;46.070;14.492;2023-04-01T16:42:27;3.10;;;2.35;;
74152;SDS011;62505;46.070;14.492;2023-04-01T16:45:00;3.88;;;2.40;;
74152;SDS011;62505;46.070;14.492;2023-04-01T16:47:45;3.85;;;2.70;;
74152;SDS011;62505;46.070;14.492;2023-04-01T16:50:15;3.58;;;2.45;;
74152;SDS011;62505;46.070;14.492;2023-04-01T16:55:35;5.18;;;2.65;;